Time;durP1;ratioP1;P1;durP2;ratioP2;P2;SDS_P1;SDS_P2;PMS_P1;PMS_P2;Temp;Humidity;BMP_temperature;BMP_pressure;BME280_temperature;BME280_humidity;BME280_pressure;Samples;Min_cycle;Max_cycle;Signal;HPM_P1;HPM_P2
2023/03/29 00:00:19;;;;;;;1.88;1.17;;;5.60;1.00;;;;;;5074568;28;20033;-65
2023/03/29 00:02:47;;;;;;;2.58;1.33;;;5.60;1.00;;;;;;5056352;28;20410;-66
2023/03/29 00:05:13;;;;;;;2.70;1.13;;;5.60;1.00;;;;;;5074185;28;20106;-65
2023/03/29 00:07:40;;;;;;;5.03;1.40;;;5.60;1.00;;;;;;5074092;28;20037;-65
2023/03/29 00:10:07;;;;;;;2.63;1.23;;;5.60;1.00;;;;;;5056501;28;20476;-68
2023/03/29 00:12:32;;;;;;;1.38;0.95;;;5.60;1.00;;;;;;5056249;28;20056;-67
2023/03/29 00:14:58;;;;;;;4.43;2.17;;;5.50;1.00;;;;;;5056403;28;20075;-66
2023/03/29 00:17:24;;;;;;;1.65;1.20;;;5.60;1.00;;;;;;5074260;28;20078;-65
2023/03/29 00:19:49;;;;;;;2.47;1.08;;;5.50;1.00;;;;;;5074073;28;20040;-65
2023/03/29 00:22:15;;;;;;;3.47;1.25;;;5.50;1.00;;;;;;5055879;28;20051;-65
2023/03/29 00:24:41;;;;;;;3.60;1.30;;;5.50;1.00;;;;;;5055969;28;20048;-66
2023/03/29 00:27:06;;;;;;;4.35;1.10;;;5.50;1.00;;;;;;5055789;28;20032;-66
2023/03/29 00:29:32;;;;;;;3.30;1.20;;;5.50;1.00;;;;;;5073948;28;20037;-65
2023/03/29 00:31:58;;;;;;;2.88;1.60;;;5.50;1.00;;;;;;5073683;28;20036;-65
2023/03/29 00:34:30;;;;;;;2.60;1.05;;;5.50;1.00;;;;;;5073586;28;20036;-65
2023/03/29 00:36:57;;;;;;;2.75;1.17;;;5.50;1.00;;;;;;5073812;28;20082;-66
2023/03/29 00:39:24;;;;;;;6.10;1.67;;;5.50;1.00;;;;;;5073636;28;20044;-65
2023/03/29 00:41:50;;;;;;;4.32;1.23;;;6.20;1.00;;;;;;5073748;28;20037;-65
2023/03/29 00:44:53;;;;;;;3.00;1.30;;;5.50;1.00;;;;;;5073717;28;20036;-65
2023/03/29 00:47:37;;;;;;;1.52;1.17;;;5.50;1.00;;;;;;5055478;28;20041;-66
2023/03/29 00:50:08;;;;;;;3.17;1.77;;;5.50;1.00;;;;;;5055655;28;20545;-65
2023/03/29 00:52:34;;;;;;;3.55;1.63;;;5.50;1.00;;;;;;5073582;28;20089;-66
2023/03/29 00:55:06;;;;;;;1.98;1.30;;;5.50;1.00;;;;;;5073467;28;20036;-66
2023/03/29 00:57:33;;;;;;;2.50;1.00;;;5.50;1.00;;;;;;5073465;28;20072;-65
2023/03/29 01:00:03;;;;;;;2.42;1.30;;;5.50;1.00;;;;;;5038249;28;20152;-65
2023/03/29 01:02:33;;;;;;;2.20;1.30;;;5.50;1.00;;;;;;5073242;28;20037;-66
2023/03/29 01:05:04;;;;;;;1.80;1.40;;;8.00;1.00;;;;;;5073109;28;20050;-65
2023/03/29 01:07:46;;;;;;;1.70;1.20;;;5.50;1.00;;;;;;5055446;28;20044;-66
2023/03/29 01:10:18;;;;;;;2.33;1.40;;;5.50;1.00;;;;;;5055333;28;20538;-66
2023/03/29 01:12:48;;;;;;;2.90;1.65;;;5.50;1.00;;;;;;5073038;28;20082;-66
2023/03/29 01:15:18;;;;;;;5.22;1.80;;;5.50;1.00;;;;;;5072963;28;20076;-66
2023/03/29 01:17:49;;;;;;;3.05;1.55;;;5.50;1.00;;;;;;5073150;28;20419;-65
2023/03/29 01:20:34;;;;;;;1.98;1.42;;;5.70;1.00;;;;;;5072970;28;20044;-66
2023/03/29 01:23:18;;;;;;;3.88;1.75;;;5.50;1.00;;;;;;5073066;28;20040;-65
2023/03/29 01:26:05;;;;;;;3.15;1.60;;;5.50;1.00;;;;;;5072946;28;20040;-66
2023/03/29 01:28:39;;;;;;;2.25;1.50;;;5.50;1.00;;;;;;5054476;28;20518;-65
2023/03/29 01:31:10;;;;;;;4.05;2.00;;;5.50;1.10;;;;;;5073047;28;20115;-66
2023/03/29 01:33:38;;;;;;;;;;;5.50;1.00;;;;;;5055236;28;20098;-66
2023/03/29 01:36:15;;;;;;;3.15;1.55;;;5.50;1.00;;;;;;5073003;28;19921;-65
2023/03/29 01:38:53;;;;;;;3.00;1.95;;;5.50;1.00;;;;;;5072753;28;20392;-68
2023/03/29 01:41:19;;;;;;;2.40;1.58;;;5.70;1.00;;;;;;5054772;28;20154;-65
2023/03/29 01:43:54;;;;;;;2.67;1.50;;;5.40;1.00;;;;;;5054752;28;20076;-66
2023/03/29 01:46:25;;;;;;;7.65;1.63;;;5.50;1.00;;;;;;5072911;28;20088;-65
2023/03/29 01:49:00;;;;;;;2.90;1.60;;;5.50;1.00;;;;;;5072503;28;20048;-66
2023/03/29 01:51:31;;;;;;;7.32;1.88;;;5.50;1.00;;;;;;5072870;28;20040;-65
2023/03/29 01:54:05;;;;;;;4.97;1.92;;;5.50;1.00;;;;;;5054990;28;20377;-65
2023/03/29 01:56:35;;;;;;;3.00;1.98;;;5.50;1.00;;;;;;5072567;28;20480;-65
2023/03/29 01:59:04;;;;;;;3.38;1.60;;;5.50;1.00;;;;;;5054403;28;20385;-65
2023/03/29 02:01:37;;;;;;;5.30;2.03;;;5.50;1.00;;;;;;5054789;28;20044;-65
2023/03/29 02:04:09;;;;;;;4.13;1.98;;;5.50;1.00;;;;;;5072689;28;20032;-68
2023/03/29 02:06:36;;;;;;;4.10;1.77;;;5.50;4.20;;;;;;5072204;28;20056;-65
2023/03/29 02:09:03;;;;;;;3.63;1.70;;;5.50;1.00;;;;;;5054634;28;20135;-66
2023/03/29 02:11:29;;;;;;;3.42;1.42;;;5.50;1.00;;;;;;5054987;28;20052;-66
2023/03/29 02:13:56;;;;;;;3.80;1.98;;;5.50;1.00;;;;;;5058769;28;20032;-65
2023/03/29 02:16:22;;;;;;;3.08;1.77;;;5.50;3.50;;;;;;5076222;28;20041;-66
2023/03/29 02:18:51;;;;;;;5.10;1.80;;;5.50;1.70;;;;;;5058193;28;20051;-66
2023/03/29 02:21:50;;;;;;;4.07;1.70;;;5.50;13.90;;;;;;5076435;28;20047;-66
2023/03/29 02:24:17;;;;;;;3.78;1.92;;;5.50;10.50;;;;;;5042639;28;20063;-66
2023/03/29 02:26:43;;;;;;;3.92;1.77;;;5.40;26.30;;;;;;5076348;28;20044;-66
2023/03/29 02:29:09;;;;;;;1.83;1.17;;;5.40;25.60;;;;;;5076304;28;20040;-66
2023/03/29 02:31:50;;;;;;;6.68;1.73;;;5.40;27.40;;;;;;5076305;28;20408;-66
2023/03/29 02:34:42;;;;;;;4.20;1.98;;;5.40;26.50;;;;;;5058316;28;20051;-66
2023/03/29 02:37:11;;;;;;;5.03;1.98;;;5.40;30.40;;;;;;5076137;28;20044;-66
2023/03/29 02:39:39;;;;;;;4.72;1.92;;;5.40;30.00;;;;;;5058008;28;20052;-65
2023/03/29 02:42:06;;;;;;;4.03;1.92;;;5.40;28.70;;;;;;5076092;28;20549;-66
2023/03/29 02:44:36;;;;;;;3.60;1.98;;;5.40;28.70;;;;;;5076095;28;20449;-67
2023/03/29 02:47:07;;;;;;;7.25;2.83;;;5.50;27.30;;;;;;5075653;28;20040;-67
2023/03/29 02:49:33;;;;;;;5.75;2.33;;;5.40;32.90;;;;;;5057984;28;20391;-66
2023/03/29 02:52:07;;;;;;;4.95;2.42;;;5.50;26.70;;;;;;5075900;28;20041;-66
2023/03/29 02:54:36;;;;;;;8.45;2.85;;;5.40;26.10;;;;;;5075865;28;20037;-66
2023/03/29 02:57:06;;;;;;;3.47;2.05;;;5.50;24.30;;;;;;5057790;28;20044;-66
2023/03/29 02:59:33;;;;;;;5.40;2.17;;;5.50;36.20;;;;;;5075752;28;20067;-66
2023/03/29 03:01:59;;;;;;;4.35;2.58;;;5.50;30.50;;;;;;5075747;28;20512;-66
2023/03/29 03:04:25;;;;;;;5.13;2.65;;;5.70;25.40;;;;;;5075520;28;20376;-65
2023/03/29 03:06:51;;;;;;;4.38;2.33;;;5.50;32.30;;;;;;5057402;28;20098;-65
2023/03/29 03:09:17;;;;;;;5.85;2.53;;;5.50;30.60;;;;;;5075321;28;20048;-66
2023/03/29 03:11:43;;;;;;;5.97;3.33;;;5.50;31.70;;;;;;5075576;28;20449;-65
2023/03/29 03:14:09;;;;;;;6.70;3.15;;;5.50;30.70;;;;;;5075174;28;20044;-65
2023/03/29 03:16:35;;;;;;;5.38;2.65;;;5.50;24.70;;;;;;5057275;28;20059;-66
2023/03/29 03:19:01;;;;;;;4.57;2.70;;;5.50;26.00;;;;;;5075365;28;20099;-65
2023/03/29 03:21:27;;;;;;;5.47;2.75;;;5.50;24.10;;;;;;5075034;28;20545;-65
2023/03/29 03:23:54;;;;;;;6.75;3.25;;;5.50;28.40;;;;;;5074195;28;20043;-66
2023/03/29 03:26:21;;;;;;;7.15;3.88;;;5.50;34.20;;;;;;5075023;28;20037;-66
2023/03/29 03:28:47;;;;;;;4.13;2.90;;;5.50;31.60;;;;;;5074857;28;20079;-66
2023/03/29 03:31:13;;;;;;;11.05;4.03;;;5.50;37.20;;;;;;5075225;28;20441;-66
2023/03/29 03:33:39;;;;;;;6.88;3.25;;;5.50;32.30;;;;;;5075146;28;20040;-67
2023/03/29 03:36:09;;;;;;;5.70;3.92;;;5.50;35.50;;;;;;5075084;28;20040;-66
2023/03/29 03:38:36;;;;;;;6.63;3.80;;;5.60;30.70;;;;;;5074627;28;20040;-67
2023/03/29 03:41:02;;;;;;;10.00;3.80;;;5.50;38.20;;;;;;5074956;28;20044;-66
2023/03/29 03:43:28;;;;;;;6.35;3.78;;;5.50;34.20;;;;;;5074930;28;20055;-65
2023/03/29 03:45:55;;;;;;;5.28;3.45;;;6.30;37.50;;;;;;5074797;28;20047;-65
2023/03/29 03:48:22;;;;;;;7.75;3.88;;;5.60;40.00;;;;;;5074876;28;20040;-66
2023/03/29 03:50:57;;;;;;;8.68;3.85;;;5.50;36.40;;;;;;5074777;28;20049;-68
2023/03/29 03:53:25;;;;;;;8.23;3.78;;;5.60;38.70;;;;;;5074737;28;20052;-66
2023/03/29 03:55:53;;;;;;;9.13;4.35;;;5.60;36.60;;;;;;5056855;28;20430;-66
2023/03/29 03:58:18;;;;;;;11.88;3.95;;;5.60;32.40;;;;;;5074566;28;20082;-66
2023/03/29 04:00:48;;;;;;;7.38;3.20;;;5.60;39.30;;;;;;5056663;28;20072;-65
2023/03/29 04:03:14;;;;;;;8.13;4.20;;;5.60;40.00;;;;;;5074478;28;20036;-65
2023/03/29 04:05:41;;;;;;;8.38;3.85;;;5.60;41.20;;;;;;5074207;28;20055;-66
2023/03/29 04:08:07;;;;;;;6.90;3.70;;;5.60;40.10;;;;;;5056562;28;20500;-66
2023/03/29 04:10:34;;;;;;;7.68;4.32;;;5.60;42.20;;;;;;5074390;28;20064;-66
2023/03/29 04:13:04;;;;;;;9.15;4.20;;;5.60;39.50;;;;;;5056376;28;20396;-66
2023/03/29 04:15:31;;;;;;;5.93;4.15;;;5.60;35.10;;;;;;5074002;28;20574;-67
2023/03/29 04:17:58;;;;;;;9.98;3.58;;;5.60;40.90;;;;;;5073906;28;20119;-65
2023/03/29 04:20:24;;;;;;;13.68;5.75;;;5.90;38.70;;;;;;5074175;28;20472;-66
2023/03/29 04:22:50;;;;;;;6.57;3.42;;;5.70;41.80;;;;;;5074164;28;20032;-66
2023/03/29 04:25:16;;;;;;;10.20;4.07;;;5.60;37.40;;;;;;5073779;28;20042;-66
2023/03/29 04:27:43;;;;;;;9.35;4.10;;;5.70;40.30;;;;;;5074068;28;20399;-66
2023/03/29 04:30:10;;;;;;;9.60;4.32;;;5.70;31.50;;;;;;5073627;28;20046;-66
2023/03/29 04:32:36;;;;;;;8.80;4.10;;;5.70;28.80;;;;;;5056014;28;20068;-66
2023/03/29 04:35:03;;;;;;;5.93;3.35;;;5.70;31.20;;;;;;5073810;28;20048;-66
2023/03/29 04:37:32;;;;;;;7.75;3.58;;;5.70;34.80;;;;;;5073922;28;20115;-66
2023/03/29 04:40:03;;;;;;;6.63;4.05;;;5.70;40.90;;;;;;5073456;28;20048;-67
2023/03/29 04:42:29;;;;;;;8.77;4.57;;;5.80;34.10;;;;;;5073814;28;20040;-66
2023/03/29 04:44:56;;;;;;;5.65;3.00;;;5.80;42.00;;;;;;5073327;28;20047;-67
2023/03/29 04:47:21;;;;;;;6.47;3.85;;;5.70;40.00;;;;;;5073322;28;20044;-67
2023/03/29 04:49:47;;;;;;;5.68;3.72;;;5.70;44.20;;;;;;5073611;28;20048;-67
2023/03/29 04:52:13;;;;;;;10.05;3.95;;;5.80;42.20;;;;;;5073296;28;20479;-69
2023/03/29 04:54:39;;;;;;;7.15;3.90;;;5.80;53.10;;;;;;5073546;28;20044;-69
2023/03/29 04:57:06;;;;;;;8.05;3.92;;;5.80;54.70;;;;;;5073482;28;20373;-68
2023/03/29 04:59:32;;;;;;;6.40;3.95;;;5.80;56.00;;;;;;5073405;28;20048;-66
2023/03/29 05:01:59;;;;;;;5.85;3.33;;;5.80;65.30;;;;;;5055317;28;20170;-66
2023/03/29 05:04:27;;;;;;;7.85;3.95;;;5.70;62.20;;;;;;5072851;28;20041;-66
2023/03/29 05:06:53;;;;;;;5.55;3.15;;;5.80;64.70;;;;;;5073333;28;20052;-66
2023/03/29 05:09:18;;;;;;;7.20;4.45;;;5.80;66.80;;;;;;5073356;28;20037;-66
2023/03/29 05:11:44;;;;;;;7.93;3.85;;;5.80;70.30;;;;;;5073265;28;20087;-66
2023/03/29 05:14:10;;;;;;;7.63;5.03;;;5.80;72.30;;;;;;5073020;28;20040;-66
2023/03/29 05:16:36;;;;;;;6.80;3.75;;;5.80;74.10;;;;;;5073129;28;20373;-66
2023/03/29 05:19:02;;;;;;;6.55;3.35;;;5.70;73.60;;;;;;5073106;28;20082;-66
2023/03/29 05:21:28;;;;;;;8.52;3.47;;;5.80;74.90;;;;;;5073180;28;20032;-66
2023/03/29 05:23:54;;;;;;;8.07;4.10;;;5.80;75.40;;;;;;5073132;28;20462;-66
2023/03/29 05:26:21;;;;;;;6.75;3.90;;;5.80;78.10;;;;;;5072778;28;20044;-66
2023/03/29 05:28:48;;;;;;;6.57;3.78;;;5.80;79.70;;;;;;5055137;28;20397;-66
2023/03/29 05:31:14;;;;;;;7.25;3.97;;;5.80;77.60;;;;;;5072810;28;20049;-66
2023/03/29 05:33:39;;;;;;;7.85;3.45;;;5.80;79.70;;;;;;5073046;28;20040;-65
2023/03/29 05:36:08;;;;;;;6.13;4.05;;;5.80;84.70;;;;;;5072617;28;20037;-65
2023/03/29 05:38:34;;;;;;;7.15;3.50;;;5.80;86.20;;;;;;5072879;28;20048;-66
2023/03/29 05:41:00;;;;;;;6.68;3.42;;;5.80;90.10;;;;;;5072944;28;20590;-66
2023/03/29 05:43:26;;;;;;;8.25;4.72;;;5.80;91.00;;;;;;5072919;28;20068;-65
2023/03/29 05:45:55;;;;;;;7.40;4.30;;;5.80;90.80;;;;;;5073184;28;20396;-66
2023/03/29 05:48:22;;;;;;;7.68;3.90;;;5.80;91.10;;;;;;5079176;28;20043;-65
2023/03/29 05:50:50;;;;;;;8.80;4.43;;;5.80;94.00;;;;;;5079272;28;20119;-65
2023/03/29 05:53:17;;;;;;;6.88;4.22;;;5.80;94.60;;;;;;5079509;28;20456;-66
2023/03/29 05:55:42;;;;;;;9.15;4.15;;;5.80;94.90;;;;;;5061519;28;20072;-66
2023/03/29 05:58:09;;;;;;;7.35;3.97;;;5.80;96.90;;;;;;5079405;28;20446;-65
2023/03/29 06:00:38;;;;;;;6.80;4.13;;;5.80;99.00;;;;;;5079422;28;20044;-65
2023/03/29 06:03:06;;;;;;;7.78;4.38;;;5.80;99.90;;;;;;5079272;28;20033;-65
2023/03/29 06:05:32;;;;;;;7.25;4.20;;;5.80;99.90;;;;;;5078984;28;20136;-66
2023/03/29 06:07:57;;;;;;;7.65;3.85;;;5.80;99.90;;;;;;5079393;28;20068;-68
2023/03/29 06:10:23;;;;;;;12.52;4.63;;;5.80;99.90;;;;;;5079117;28;20571;-65
2023/03/29 06:12:49;;;;;;;6.80;3.80;;;5.80;99.90;;;;;;5079304;28;20485;-66
2023/03/29 06:15:15;;;;;;;8.45;4.47;;;5.80;99.90;;;;;;5079010;28;20037;-65
2023/03/29 06:17:44;;;;;;;6.93;3.83;;;5.80;99.90;;;;;;5079345;28;20045;-65
2023/03/29 06:20:10;;;;;;;7.25;3.38;;;5.80;99.90;;;;;;5078917;28;20048;-65
2023/03/29 06:22:40;;;;;;;7.18;3.50;;;5.80;99.90;;;;;;5079283;28;20032;-65
2023/03/29 06:25:09;;;;;;;10.35;4.07;;;5.80;99.90;;;;;;5079248;28;20037;-65
2023/03/29 06:27:35;;;;;;;12.20;3.55;;;5.80;99.90;;;;;;5061297;28;20048;-66
2023/03/29 06:30:02;;;;;;;4.63;3.22;;;5.80;99.90;;;;;;5079170;28;20481;-66
2023/03/29 06:32:28;;;;;;;6.30;3.67;;;5.80;99.90;;;;;;5079052;28;20076;-68
2023/03/29 06:34:54;;;;;;;6.90;3.72;;;5.80;99.90;;;;;;5060936;28;20573;-65
2023/03/29 06:37:21;;;;;;;9.23;5.00;;;5.80;99.90;;;;;;5060939;28;20396;-65
2023/03/29 06:39:51;;;;;;;6.57;4.00;;;5.80;99.90;;;;;;5060810;28;20044;-66
2023/03/29 06:42:18;;;;;;;7.43;4.07;;;5.90;99.90;;;;;;5061161;28;20076;-65
2023/03/29 06:44:45;;;;;;;6.38;3.67;;;6.60;99.90;;;;;;5079083;28;20043;-65
2023/03/29 06:47:12;;;;;;;5.68;3.67;;;5.90;99.90;;;;;;5060764;28;20077;-65
2023/03/29 06:49:38;;;;;;;6.00;3.38;;;5.90;99.90;;;;;;5079082;28;20139;-65
2023/03/29 06:52:04;;;;;;;7.70;3.63;;;6.00;99.90;;;;;;5079306;28;20072;-66
2023/03/29 06:54:30;;;;;;;8.05;3.70;;;6.00;99.90;;;;;;5079047;28;20075;-67
2023/03/29 06:56:56;;;;;;;5.93;3.58;;;6.00;99.90;;;;;;5060635;28;20094;-67
2023/03/29 06:59:22;;;;;;;6.95;3.63;;;6.10;99.90;;;;;;5057988;28;20133;-67
2023/03/29 07:01:48;;;;;;;9.60;4.03;;;6.00;99.90;;;;;;5075729;28;20119;-71
2023/03/29 07:04:13;;;;;;;9.05;4.07;;;6.10;99.90;;;;;;5057514;28;20395;-67
2023/03/29 07:06:39;;;;;;;6.68;3.70;;;6.10;99.90;;;;;;5075723;28;20062;-69
2023/03/29 07:09:05;;;;;;;7.13;3.63;;;6.20;99.90;;;;;;5075478;28;20087;-66
2023/03/29 07:11:35;;;;;;;9.95;4.90;;;6.20;99.90;;;;;;5075431;28;20046;-66
2023/03/29 07:14:02;;;;;;;5.25;3.55;;;6.20;99.90;;;;;;5075384;28;20052;-66
2023/03/29 07:16:27;;;;;;;7.95;4.07;;;6.20;99.90;;;;;;5057582;28;20387;-66
2023/03/29 07:18:53;;;;;;;6.97;3.95;;;6.20;99.90;;;;;;5075131;28;20037;-66
2023/03/29 07:21:19;;;;;;;6.32;3.60;;;6.20;99.90;;;;;;5075271;28;20075;-66
2023/03/29 07:23:45;;;;;;;7.60;3.50;;;6.20;99.90;;;;;;5075162;28;20365;-65
2023/03/29 07:26:11;;;;;;;4.63;3.45;;;6.20;99.90;;;;;;5057076;28;20101;-68
2023/03/29 07:28:38;;;;;;;9.57;4.07;;;6.30;99.90;;;;;;5075045;28;20178;-66
2023/03/29 07:31:06;;;;;;;8.40;4.80;;;6.20;99.90;;;;;;5057222;28;20094;-66
2023/03/29 07:33:33;;;;;;;7.10;3.28;;;6.20;99.90;;;;;;5057129;28;20144;-66
2023/03/29 07:35:59;;;;;;;5.18;3.38;;;6.30;99.90;;;;;;5074805;28;20045;-66
2023/03/29 07:38:25;;;;;;;5.20;3.03;;;6.30;99.90;;;;;;5074769;28;20040;-66
2023/03/29 07:40:53;;;;;;;5.57;3.25;;;6.40;99.90;;;;;;5057091;28;20569;-66
2023/03/29 07:43:19;;;;;;;6.20;3.22;;;6.50;99.90;;;;;;5075026;28;20040;-66
2023/03/29 07:45:45;;;;;;;7.53;4.38;;;6.50;99.90;;;;;;5056731;28;20037;-69
2023/03/29 07:48:12;;;;;;;5.38;3.10;;;6.60;99.90;;;;;;5056646;28;20071;-68
2023/03/29 07:50:37;;;;;;;8.65;3.45;;;6.60;99.90;;;;;;5074835;28;20109;-66
2023/03/29 07:53:03;;;;;;;5.13;3.42;;;6.70;99.90;;;;;;5074426;28;20052;-66
2023/03/29 07:55:29;;;;;;;6.57;3.38;;;6.70;99.90;;;;;;5074779;28;20055;-68
2023/03/29 07:57:55;;;;;;;4.78;2.88;;;6.80;99.90;;;;;;5074266;28;20040;-66
2023/03/29 08:00:23;;;;;;;5.13;2.90;;;6.70;99.90;;;;;;5074664;28;20040;-66
2023/03/29 08:02:51;;;;;;;6.30;3.92;;;6.80;99.90;;;;;;5040073;28;20408;-66
2023/03/29 08:05:18;;;;;;;4.47;2.92;;;6.80;99.90;;;;;;5039847;28;20044;-70
2023/03/29 08:07:45;;;;;;;5.85;3.53;;;6.80;99.90;;;;;;5074649;28;20043;-67
2023/03/29 08:10:17;;;;;;;5.97;3.47;;;6.80;99.90;;;;;;5073997;28;20399;-67
2023/03/29 08:12:44;;;;;;;6.70;3.22;;;6.90;99.90;;;;;;5074725;28;20082;-67
2023/03/29 08:15:10;;;;;;;4.90;3.22;;;6.90;99.90;;;;;;5056575;28;20049;-66
2023/03/29 08:17:36;;;;;;;5.72;3.67;;;6.90;99.90;;;;;;5074565;28;20041;-66
2023/03/29 08:20:04;;;;;;;9.10;2.85;;;7.00;99.90;;;;;;5074370;28;20492;-66
2023/03/29 08:22:31;;;;;;;7.50;3.80;;;7.00;99.90;;;;;;5074136;28;20399;-68
2023/03/29 08:24:57;;;;;;;8.00;3.38;;;7.00;99.90;;;;;;5074555;28;20028;-67
2023/03/29 08:27:23;;;;;;;5.00;3.33;;;7.10;99.90;;;;;;5039746;28;20395;-67
2023/03/29 08:29:49;;;;;;;6.20;3.35;;;7.10;99.90;;;;;;5073816;28;20040;-66
2023/03/29 08:32:15;;;;;;;4.57;2.60;;;7.20;99.90;;;;;;5074012;28;20089;-66
2023/03/29 08:34:40;;;;;;;7.85;3.90;;;7.30;99.90;;;;;;5073911;28;20115;-68
2023/03/29 08:37:07;;;;;;;7.13;3.28;;;7.60;99.90;;;;;;5073845;28;20044;-66
2023/03/29 08:39:33;;;;;;;5.63;3.25;;;8.20;99.90;;;;;;5073781;28;20441;-66
2023/03/29 08:42:07;;;;;;;8.27;3.08;;;7.40;99.90;;;;;;5073744;28;20067;-66
2023/03/29 08:45:02;;;;;;;6.55;3.15;;;7.50;99.90;;;;;;5055742;28;20467;-66
2023/03/29 08:47:43;;;;;;;3.72;2.65;;;7.60;99.90;;;;;;5073648;28;20377;-67
2023/03/29 08:50:11;;;;;;;3.45;2.55;;;7.70;99.90;;;;;;5055454;28;20055;-66
2023/03/29 08:52:51;;;;;;;5.35;2.92;;;7.80;99.90;;;;;;5073577;28;20052;-66
2023/03/29 08:55:28;;;;;;;4.32;2.53;;;7.90;95.50;;;;;;5073379;28;20040;-65
2023/03/29 08:57:55;;;;;;;5.70;2.88;;;8.00;92.80;;;;;;5073413;28;20040;-66
2023/03/29 09:00:32;;;;;;;8.60;3.35;;;8.80;93.20;;;;;;5073505;28;20045;-66
2023/03/29 09:03:01;;;;;;;4.72;2.92;;;8.20;84.20;;;;;;5073755;28;20033;-66
2023/03/29 09:05:32;;;;;;;8.75;3.30;;;8.40;81.50;;;;;;5073122;28;20041;-66
2023/03/29 09:07:58;;;;;;;5.07;3.05;;;8.60;58.30;;;;;;5073385;28;20098;-66
2023/03/29 09:10:37;;;;;;;4.30;3.03;;;8.70;53.60;;;;;;5073028;28;20040;-67
2023/03/29 09:13:19;;;;;;;6.65;3.13;;;8.80;52.20;;;;;;5073024;28;20039;-67
2023/03/29 09:16:08;;;;;;;7.32;3.20;;;9.00;63.10;;;;;;5073218;28;20033;-67
2023/03/29 09:18:55;;;;;;;5.43;3.53;;;9.00;31.00;;;;;;5073155;28;20074;-67
2023/03/29 09:21:45;;;;;;;6.50;3.08;;;9.70;27.30;;;;;;5072445;28;20579;-67
2023/03/29 09:24:17;;;;;;;6.03;3.10;;;9.20;11.30;;;;;;5055149;28;20679;-67
2023/03/29 09:26:59;;;;;;;4.63;3.17;;;9.20;9.80;;;;;;5073056;28;20040;-66
2023/03/29 09:29:34;;;;;;;6.10;3.40;;;9.40;12.70;;;;;;5073023;28;20040;-66
2023/03/29 09:32:04;;;;;;;15.82;3.45;;;9.40;1.00;;;;;;5072689;28;20047;-67
2023/03/29 09:34:40;;;;;;;4.68;2.40;;;9.40;1.00;;;;;;5073562;28;20400;-67
2023/03/29 09:37:15;;;;;;;6.55;3.42;;;9.40;1.00;;;;;;5072863;28;20523;-67
2023/03/29 09:39:41;;;;;;;9.38;4.00;;;9.40;1.00;;;;;;5072681;28;20451;-68
2023/03/29 09:42:08;;;;;;;4.45;3.20;;;11.70;1.00;;;;;;5072616;28;20037;-67
2023/03/29 09:44:45;;;;;;;6.75;3.88;;;9.60;1.00;;;;;;5055076;28;20047;-67
2023/03/29 09:47:28;;;;;;;10.27;3.67;;;9.60;1.00;;;;;;5072929;28;20037;-67
2023/03/29 09:50:00;;;;;;;6.35;3.25;;;9.70;1.00;;;;;;5055020;28;20036;-67
2023/03/29 09:52:26;;;;;;;6.78;2.97;;;9.80;1.00;;;;;;5072820;28;20555;-67
2023/03/29 09:54:52;;;;;;;7.15;3.30;;;9.90;1.00;;;;;;5072733;28;20127;-67
2023/03/29 09:57:19;;;;;;;8.23;3.90;;;9.90;1.00;;;;;;5072797;28;20044;-67
2023/03/29 09:59:50;;;;;;;6.38;3.13;;;10.10;1.00;;;;;;5072505;28;20044;-67
2023/03/29 10:02:19;;;;;;;12.05;3.38;;;10.00;1.00;;;;;;5072743;28;20494;-67
2023/03/29 10:04:51;;;;;;;7.03;2.88;;;10.00;1.00;;;;;;5072479;28;20052;-67
2023/03/29 10:07:19;;;;;;;7.57;3.00;;;10.30;99.90;;;;;;5054778;28;20060;-68
2023/03/29 10:09:49;;;;;;;6.43;3.00;;;10.30;99.90;;;;;;5072676;28;20041;-67
2023/03/29 10:12:15;;;;;;;8.13;2.72;;;10.20;99.90;;;;;;5072345;28;20040;-68
2023/03/29 10:14:47;;;;;;;8.38;4.00;;;10.50;1.00;;;;;;5072589;28;20388;-67
2023/03/29 10:17:23;;;;;;;5.82;3.53;;;11.10;99.90;;;;;;5072584;28;20534;-67
2023/03/29 10:19:51;;;;;;;8.43;3.90;;;10.70;99.90;;;;;;5072223;28;20124;-68
2023/03/29 10:22:22;;;;;;;5.93;3.67;;;10.80;99.90;;;;;;5038009;28;20036;-68
2023/03/29 10:24:50;;;;;;;5.10;3.30;;;11.00;99.90;;;;;;5072599;28;20557;-67
2023/03/29 10:27:23;;;;;;;8.25;3.50;;;10.80;99.90;;;;;;5054598;28;20037;-68
2023/03/29 10:29:50;;;;;;;8.20;4.07;;;10.60;99.90;;;;;;5072599;28;20045;-67
2023/03/29 10:32:31;;;;;;;8.68;3.65;;;10.60;99.90;;;;;;5072464;28;20041;-67
2023/03/29 10:35:14;;;;;;;6.60;3.83;;;10.50;99.90;;;;;;5075976;28;20051;-67
2023/03/29 10:37:47;;;;;;;9.98;4.10;;;10.70;99.90;;;;;;5076245;28;20066;-67
2023/03/29 10:40:34;;;;;;;9.68;3.58;;;11.00;99.90;;;;;;5076119;28;20067;-67
2023/03/29 10:43:11;;;;;;;7.80;4.10;;;10.70;99.90;;;;;;5076149;28;20040;-67
2023/03/29 10:45:38;;;;;;;6.55;3.88;;;11.80;99.90;;;;;;5076106;28;20051;-67
2023/03/29 10:48:05;;;;;;;6.95;4.53;;;11.00;99.90;;;;;;5058128;28;20086;-67
2023/03/29 10:50:34;;;;;;;8.57;4.00;;;10.90;99.90;;;;;;5076058;28;20102;-67
2023/03/29 10:53:01;;;;;;;7.93;3.50;;;11.00;99.90;;;;;;5075919;28;20502;-67
2023/03/29 10:55:35;;;;;;;7.25;3.85;;;11.10;99.90;;;;;;5075948;28;20036;-67
2023/03/29 10:58:24;;;;;;;9.18;3.58;;;11.00;99.90;;;;;;5057887;28;20131;-69
2023/03/29 11:00:56;;;;;;;9.90;4.25;;;11.40;99.90;;;;;;5057767;28;20087;-67
2023/03/29 11:03:40;;;;;;;5.43;3.75;;;11.30;99.90;;;;;;5057702;28;20080;-67
2023/03/29 11:06:13;;;;;;;7.90;4.20;;;11.60;99.90;;;;;;5040636;28;20061;-66
2023/03/29 11:08:48;;;;;;;10.88;3.78;;;11.90;99.90;;;;;;5075664;28;20166;-67
2023/03/29 11:11:39;;;;;;;11.43;4.43;;;12.00;99.90;;;;;;5075519;28;20033;-67
2023/03/29 11:14:12;;;;;;;;;;;12.10;63.70;;;;;;5075873;28;20046;-70
2023/03/29 11:16:56;;;;;;;6.97;4.40;;;12.40;25.60;;;;;;5057562;28;19924;-66
2023/03/29 11:19:52;;;;;;;11.65;3.50;;;12.60;76.10;;;;;;5075034;28;20045;-66
2023/03/29 11:22:40;;;;;;;8.55;4.22;;;12.70;1.00;;;;;;5075370;28;20373;-67
2023/03/29 11:25:26;;;;;;;5.07;3.75;;;12.80;99.90;;;;;;5075324;28;20510;-68
2023/03/29 11:28:00;;;;;;;6.72;3.90;;;13.00;99.90;;;;;;5075274;28;20045;-66
2023/03/29 11:30:30;;;;;;;5.10;3.63;;;13.30;99.90;;;;;;5056907;28;20115;-66
2023/03/29 11:33:24;;;;;;;5.90;3.50;;;13.20;99.90;;;;;;5074885;28;20048;-66
2023/03/29 11:36:18;;;;;;;6.00;3.40;;;13.00;99.90;;;;;;5075125;28;20036;-66
2023/03/29 11:39:03;;;;;;;4.75;3.63;;;13.00;99.90;;;;;;5074993;28;20048;-67
2023/03/29 11:41:37;;;;;;;7.57;3.90;;;13.20;99.90;;;;;;5075083;28;20037;-66
2023/03/29 11:44:10;;;;;;;6.10;3.72;;;13.50;99.90;;;;;;5056203;28;20447;-66
2023/03/29 11:46:42;;;;;;;6.45;3.55;;;13.10;99.90;;;;;;5074823;28;20116;-66
2023/03/29 11:49:23;;;;;;;7.10;3.70;;;13.20;99.90;;;;;;5074825;28;20487;-67
2023/03/29 11:51:54;;;;;;;;;;;13.10;99.90;;;;;;5075287;28;20043;-67
2023/03/29 11:54:44;;;;;;;8.23;3.47;;;13.10;88.10;;;;;;5074875;28;20286;-67
2023/03/29 11:57:19;;;;;;;7.13;4.17;;;13.20;99.90;;;;;;5056829;28;20064;-67
2023/03/29 11:59:57;;;;;;;5.43;3.28;;;13.20;99.90;;;;;;5074383;28;20049;-67
2023/03/29 12:02:38;;;;;;;7.10;3.25;;;13.40;50.30;;;;;;5056015;28;20040;-66
2023/03/29 12:05:22;;;;;;;6.18;3.40;;;13.50;56.00;;;;;;5074248;28;20052;-66
2023/03/29 12:07:58;;;;;;;6.03;3.30;;;13.60;1.00;;;;;;5074532;28;20504;-66
2023/03/29 12:10:43;;;;;;;6.95;3.35;;;13.60;99.90;;;;;;5074265;28;20109;-66
2023/03/29 12:13:29;;;;;;;7.30;2.97;;;13.60;1.00;;;;;;5056147;28;20040;-71
2023/03/29 12:16:01;;;;;;;5.45;3.20;;;13.70;1.00;;;;;;5056302;28;20037;-67
2023/03/29 12:18:32;;;;;;;9.10;3.35;;;13.80;1.00;;;;;;5073872;28;20044;-66
2023/03/29 12:21:00;;;;;;;6.13;3.40;;;14.20;99.90;;;;;;5056075;28;20396;-67
2023/03/29 12:23:30;;;;;;;8.55;3.47;;;14.00;99.90;;;;;;5074144;28;20049;-66
2023/03/29 12:26:08;;;;;;;3.97;2.33;;;14.30;99.90;;;;;;5074036;28;20059;-66
2023/03/29 12:28:59;;;;;;;3.28;2.28;;;14.40;99.90;;;;;;5074131;28;20108;-67
2023/03/29 12:32:01;;;;;;;5.32;3.85;;;14.70;99.90;;;;;;5074077;28;20531;-67
2023/03/29 12:34:41;;;;;;;5.97;2.88;;;14.50;99.90;;;;;;5073905;28;20102;-67
2023/03/29 12:37:23;;;;;;;5.27;3.13;;;14.60;99.90;;;;;;5073940;28;20531;-66
2023/03/29 12:39:50;;;;;;;4.47;2.80;;;14.60;1.00;;;;;;5073757;28;20047;-67
2023/03/29 12:42:21;;;;;;;5.18;3.17;;;14.70;1.00;;;;;;5073434;28;20045;-67
2023/03/29 12:44:57;;;;;;;4.07;2.72;;;14.80;99.90;;;;;;5073647;28;20036;-69
2023/03/29 12:47:32;;;;;;;6.05;2.75;;;14.90;42.80;;;;;;5073304;28;20032;-67
2023/03/29 12:49:59;;;;;;;4.10;2.63;;;14.80;99.90;;;;;;5073655;28;20045;-67
2023/03/29 12:52:35;;;;;;;4.00;2.78;;;14.80;99.90;;;;;;5073695;28;20434;-67
2023/03/29 12:55:15;;;;;;;4.70;2.63;;;15.10;99.90;;;;;;5073525;28;20579;-67
2023/03/29 12:57:44;;;;;;;4.80;2.60;;;14.80;76.00;;;;;;5073555;28;20159;-68
2023/03/29 13:00:49;;;;;;;5.63;3.08;;;14.80;99.90;;;;;;5073256;28;20075;-67
2023/03/29 13:03:39;;;;;;;4.72;2.55;;;14.80;99.90;;;;;;5070056;28;20056;-67
2023/03/29 13:06:08;;;;;;;5.43;2.57;;;14.80;99.90;;;;;;5054999;28;20112;-66
2023/03/29 13:08:43;;;;;;;7.75;3.40;;;14.70;99.90;;;;;;5073247;28;20274;-66
2023/03/29 13:11:26;;;;;;;8.05;2.97;;;15.50;88.80;;;;;;5073254;28;20381;-65
2023/03/29 13:13:52;;;;;;;7.32;2.90;;;14.50;99.90;;;;;;5073146;28;20512;-65
2023/03/29 13:16:38;;;;;;;6.63;2.90;;;14.30;99.90;;;;;;5073071;28;20040;-66